Time;durP1;ratioP1;P1;durP2;ratioP2;P2;SDS_P1;SDS_P2;PMS_P1;PMS_P2;Temp;Humidity;BMP_temperature;BMP_pressure;BME280_temperature;BME280_humidity;BME280_pressure;Samples;Min_cycle;Max_cycle;Signal;HPM_P1;HPM_P2
2020/12/25 00:00:48;;;;;;;0.87;0.67;;;7.30;99.90;;;;;;4992126;28;20209;-72
2020/12/25 00:03:16;;;;;;;3.37;1.10;;;7.30;99.90;;;;;;4992013;28;20208;-74
2020/12/25 00:05:45;;;;;;;2.90;1.03;;;7.40;99.90;;;;;;4992079;28;20299;-74
2020/12/25 00:08:13;;;;;;;1.30;0.87;;;7.30;99.90;;;;;;4992172;28;20268;-73
2020/12/25 00:10:41;;;;;;;1.20;0.60;;;7.30;99.90;;;;;;4992428;28;20240;-75
2020/12/25 00:13:08;;;;;;;1.93;1.00;;;7.10;99.90;;;;;;4992094;28;20208;-73
2020/12/25 00:15:34;;;;;;;1.03;0.53;;;7.00;99.90;;;;;;4991783;28;20220;-75
2020/12/25 00:18:01;;;;;;;1.40;0.80;;;6.90;99.90;;;;;;4991810;28;20217;-75
2020/12/25 00:20:27;;;;;;;1.53;1.13;;;6.80;99.90;;;;;;4992044;28;20201;-74
2020/12/25 00:22:54;;;;;;;3.10;0.77;;;6.80;99.90;;;;;;4991875;28;20351;-74
2020/12/25 00:25:21;;;;;;;1.43;1.33;;;6.80;99.90;;;;;;4991771;28;20237;-75
2020/12/25 00:27:47;;;;;;;3.40;0.90;;;6.80;99.90;;;;;;4991951;28;20251;-75
2020/12/25 00:30:13;;;;;;;2.47;1.20;;;6.80;99.90;;;;;;4991840;28;20212;-74
2020/12/25 00:32:40;;;;;;;2.13;1.00;;;6.80;99.90;;;;;;4992022;28;20677;-73
2020/12/25 00:35:06;;;;;;;1.53;0.93;;;6.80;99.90;;;;;;4992199;28;20209;-74
2020/12/25 00:37:33;;;;;;;1.67;0.93;;;6.90;99.90;;;;;;4993605;28;20201;-74
2020/12/25 00:40:00;;;;;;;2.80;1.10;;;6.90;99.90;;;;;;4995193;28;20557;-74
2020/12/25 00:42:26;;;;;;;1.20;0.70;;;6.90;99.90;;;;;;4995231;28;20205;-74
2020/12/25 00:44:53;;;;;;;1.60;0.80;;;6.90;99.90;;;;;;4995066;28;20719;-74
2020/12/25 00:47:19;;;;;;;4.37;1.30;;;6.90;99.90;;;;;;4995469;28;20244;-73
2020/12/25 00:49:46;;;;;;;1.70;0.90;;;6.90;99.90;;;;;;4995370;28;20201;-74
2020/12/25 00:52:12;;;;;;;4.13;0.97;;;6.90;99.90;;;;;;4995208;28;20704;-73
2020/12/25 00:54:38;;;;;;;1.43;0.60;;;6.90;99.90;;;;;;4995457;28;20212;-74
2020/12/25 00:57:06;;;;;;;1.77;0.73;;;6.90;99.90;;;;;;4995496;28;20613;-74
2020/12/25 00:59:32;;;;;;;0.80;0.70;;;6.90;99.90;;;;;;4994934;28;20239;-75
2020/12/25 01:01:59;;;;;;;4.77;0.97;;;7.00;99.90;;;;;;4994966;28;20716;-74
2020/12/25 01:04:25;;;;;;;3.27;0.70;;;7.00;99.90;;;;;;4994767;28;20209;-74
2020/12/25 01:06:51;;;;;;;2.60;0.80;;;7.00;99.90;;;;;;4995044;28;20328;-74
2020/12/25 01:09:18;;;;;;;0.50;0.50;;;7.00;99.90;;;;;;4994772;28;20216;-74
2020/12/25 01:11:44;;;;;;;2.37;0.60;;;7.00;99.90;;;;;;4994718;28;20201;-73
2020/12/25 01:14:11;;;;;;;0.97;0.60;;;7.00;99.90;;;;;;4995298;28;20208;-73
2020/12/25 01:16:38;;;;;;;0.87;0.67;;;6.90;99.90;;;;;;4994850;28;20205;-73
2020/12/25 01:19:04;;;;;;;3.00;0.97;;;6.80;99.90;;;;;;4994774;28;20204;-74
2020/12/25 01:21:31;;;;;;;0.73;0.53;;;6.80;99.90;;;;;;4994624;28;20578;-73
2020/12/25 01:23:57;;;;;;;1.23;0.70;;;6.70;99.90;;;;;;4994504;28;20595;-73
2020/12/25 01:26:23;;;;;;;1.10;0.80;;;6.60;99.90;;;;;;4994336;28;20241;-74
2020/12/25 01:28:53;;;;;;;1.90;1.30;;;6.60;99.90;;;;;;4994706;28;20200;-74
2020/12/25 01:31:20;;;;;;;1.53;0.93;;;6.60;99.90;;;;;;4994409;28;20212;-74
2020/12/25 01:33:47;;;;;;;2.17;0.67;;;6.60;99.90;;;;;;4994357;28;20209;-73
2020/12/25 01:36:13;;;;;;;1.80;0.93;;;6.60;99.90;;;;;;4994605;28;20209;-75
2020/12/25 01:38:39;;;;;;;0.87;0.70;;;6.60;99.90;;;;;;4994473;28;20216;-73
2020/12/25 01:41:06;;;;;;;2.70;0.97;;;6.50;99.90;;;;;;4994160;28;20673;-73
2020/12/25 01:43:32;;;;;;;2.00;0.80;;;6.50;99.90;;;;;;4994413;28;20245;-74
2020/12/25 01:45:59;;;;;;;4.30;1.50;;;6.50;99.90;;;;;;4994312;28;20240;-74
2020/12/25 01:48:26;;;;;;;1.33;0.73;;;6.50;99.90;;;;;;4993321;28;20233;-74
2020/12/25 01:50:53;;;;;;;3.60;1.00;;;6.50;99.90;;;;;;4994071;28;20204;-74
2020/12/25 01:53:21;;;;;;;2.87;1.30;;;6.50;99.90;;;;;;4994028;28;20285;-74
2020/12/25 01:55:50;;;;;;;2.87;1.20;;;6.40;99.90;;;;;;4994160;28;20216;-74
2020/12/25 01:58:18;;;;;;;3.20;1.63;;;6.40;99.90;;;;;;4993877;28;20208;-73
2020/12/25 02:00:47;;;;;;;6.60;1.40;;;6.30;99.90;;;;;;4994300;28;20255;-74
2020/12/25 02:03:15;;;;;;;2.73;1.10;;;6.20;99.90;;;;;;4994000;28;20586;-73
2020/12/25 02:05:43;;;;;;;3.13;1.13;;;6.10;99.90;;;;;;4993916;28;20322;-75
2020/12/25 02:08:10;;;;;;;3.87;1.00;;;5.90;99.90;;;;;;4993714;28;20630;-73
2020/12/25 02:10:37;;;;;;;2.43;1.33;;;5.90;99.90;;;;;;4993866;28;20274;-74
2020/12/25 02:13:04;;;;;;;2.13;1.20;;;6.00;99.90;;;;;;4993700;28;20252;-74
2020/12/25 02:15:31;;;;;;;2.53;1.40;;;6.10;99.90;;;;;;4993698;28;20241;-74
2020/12/25 02:17:57;;;;;;;3.13;1.57;;;6.10;99.90;;;;;;4993607;28;20644;-74
2020/12/25 02:20:24;;;;;;;4.00;1.30;;;6.00;99.90;;;;;;4993520;28;20239;-74
2020/12/25 02:22:51;;;;;;;2.60;1.37;;;5.80;99.90;;;;;;4993482;28;20217;-75
2020/12/25 02:25:19;;;;;;;4.87;1.40;;;5.70;99.90;;;;;;4993506;28;20278;-73
2020/12/25 02:27:46;;;;;;;3.00;1.30;;;5.50;99.90;;;;;;4993825;28;20220;-74
2020/12/25 02:30:14;;;;;;;4.40;1.33;;;5.50;99.90;;;;;;4993601;28;20636;-74
2020/12/25 02:32:41;;;;;;;4.07;1.53;;;5.60;99.90;;;;;;4993294;28;20208;-74
2020/12/25 02:35:08;;;;;;;4.13;1.20;;;5.70;99.90;;;;;;4992989;28;20216;-75
2020/12/25 02:37:34;;;;;;;1.30;1.20;;;5.70;99.90;;;;;;4993469;28;20236;-73
2020/12/25 02:40:02;;;;;;;2.73;1.77;;;5.70;99.90;;;;;;4993325;28;20209;-73
2020/12/25 02:42:29;;;;;;;1.57;1.20;;;5.80;99.90;;;;;;4993130;28;20201;-74
2020/12/25 02:44:55;;;;;;;3.70;0.90;;;5.80;99.90;;;;;;4992891;28;20796;-74
2020/12/25 02:47:21;;;;;;;3.77;1.37;;;5.80;99.90;;;;;;4993025;28;20237;-74
2020/12/25 02:49:48;;;;;;;1.90;1.23;;;5.80;99.90;;;;;;4993156;28;20228;-72
2020/12/25 02:52:14;;;;;;;5.53;1.47;;;5.70;99.90;;;;;;4993382;28;20263;-75
2020/12/25 02:54:41;;;;;;;5.20;1.57;;;5.70;99.90;;;;;;4992818;28;20747;-73
2020/12/25 02:57:08;;;;;;;2.90;1.57;;;5.80;99.90;;;;;;4992879;28;20205;-74
2020/12/25 02:59:34;;;;;;;1.10;1.00;;;5.80;99.90;;;;;;4992823;28;20211;-75
2020/12/25 03:02:01;;;;;;;3.03;1.27;;;5.80;99.90;;;;;;4992650;28;20711;-75
2020/12/25 03:04:27;;;;;;;2.23;0.90;;;5.80;99.90;;;;;;4992938;28;20211;-75
2020/12/25 03:06:53;;;;;;;1.43;0.93;;;5.70;99.90;;;;;;4992963;28;20205;-73
2020/12/25 03:09:20;;;;;;;4.23;1.37;;;5.50;99.90;;;;;;4992836;28;20267;-73
2020/12/25 03:11:46;;;;;;;4.33;1.40;;;5.30;99.90;;;;;;4992994;28;20286;-74
2020/12/25 03:14:14;;;;;;;2.27;1.67;;;5.20;99.90;;;;;;4992536;28;20268;-73
2020/12/25 03:16:40;;;;;;;2.00;1.17;;;5.20;99.90;;;;;;4992505;28;20219;-74
2020/12/25 03:19:06;;;;;;;2.80;1.33;;;5.20;99.90;;;;;;4992382;28;20217;-73
2020/12/25 03:21:33;;;;;;;3.93;1.37;;;5.10;99.90;;;;;;4992630;28;20259;-74
2020/12/25 03:23:59;;;;;;;3.60;1.20;;;5.00;99.90;;;;;;4992348;28;20224;-75
2020/12/25 03:26:26;;;;;;;4.03;1.53;;;4.90;99.90;;;;;;4992375;28;20232;-74
2020/12/25 03:28:52;;;;;;;2.63;1.27;;;4.80;99.90;;;;;;4992437;28;20306;-73
2020/12/25 03:31:19;;;;;;;5.23;1.33;;;4.80;99.90;;;;;;4992469;28;20205;-75
2020/12/25 03:33:46;;;;;;;4.80;1.33;;;4.70;99.90;;;;;;4992641;28;20205;-75
2020/12/25 03:36:12;;;;;;;5.80;1.60;;;4.70;99.90;;;;;;4992367;28;20211;-74
2020/12/25 03:38:39;;;;;;;1.77;1.37;;;4.70;99.90;;;;;;4992325;28;20205;-74
2020/12/25 03:41:05;;;;;;;1.40;1.10;;;4.60;99.90;;;;;;4992100;28;20669;-74
2020/12/25 03:43:32;;;;;;;5.17;1.23;;;4.50;99.90;;;;;;4992233;28;20205;-73
2020/12/25 03:45:58;;;;;;;5.23;1.37;;;4.50;99.90;;;;;;4992072;28;20268;-73
2020/12/25 03:48:25;;;;;;;3.33;1.30;;;4.40;99.90;;;;;;4992462;28;20200;-74
2020/12/25 03:50:52;;;;;;;6.30;1.47;;;4.40;99.90;;;;;;4992564;28;20205;-73
2020/12/25 03:53:18;;;;;;;4.83;1.47;;;4.30;99.90;;;;;;4992637;28;20621;-74
2020/12/25 03:55:44;;;;;;;5.17;1.37;;;4.20;99.90;;;;;;4992032;28;20212;-74
2020/12/25 03:58:11;;;;;;;5.00;1.20;;;4.30;99.90;;;;;;4992109;28;20216;-74
2020/12/25 04:00:37;;;;;;;6.70;1.60;;;4.20;99.90;;;;;;4991997;28;20209;-74
2020/12/25 04:03:04;;;;;;;6.30;1.07;;;4.20;99.90;;;;;;4992240;28;20205;-74
2020/12/25 04:05:31;;;;;;;3.50;2.53;;;4.10;99.90;;;;;;4991932;28;20790;-74
2020/12/25 04:07:57;;;;;;;7.40;1.90;;;4.10;99.90;;;;;;4991872;28;20546;-73
2020/12/25 04:10:24;;;;;;;4.67;1.73;;;4.10;99.90;;;;;;4992030;28;20205;-73
2020/12/25 04:12:50;;;;;;;9.90;3.80;;;4.10;99.90;;;;;;4994613;28;20251;-73
2020/12/25 04:15:17;;;;;;;6.20;1.80;;;3.90;99.90;;;;;;4995800;28;20719;-75
2020/12/25 04:17:43;;;;;;;4.03;1.40;;;3.90;99.90;;;;;;4995867;28;21173;-73
2020/12/25 04:20:09;;;;;;;5.00;3.23;;;3.80;99.90;;;;;;4995875;28;20212;-74
2020/12/25 04:22:37;;;;;;;3.83;1.60;;;3.80;99.90;;;;;;4995648;28;20227;-73
2020/12/25 04:25:03;;;;;;;3.13;1.20;;;3.80;99.90;;;;;;4995578;28;20240;-74
2020/12/25 04:27:30;;;;;;;4.13;1.90;;;3.80;99.90;;;;;;4995507;28;20673;-74
2020/12/25 04:29:56;;;;;;;5.13;1.60;;;3.90;99.90;;;;;;4995786;28;20208;-73
2020/12/25 04:32:23;;;;;;;5.47;1.63;;;3.90;99.90;;;;;;4996038;28;20220;-75
2020/12/25 04:34:49;;;;;;;5.33;1.53;;;3.90;99.90;;;;;;4995625;28;20211;-75
2020/12/25 04:37:17;;;;;;;2.80;1.50;;;3.90;99.90;;;;;;4995574;28;20303;-74
2020/12/25 04:39:44;;;;;;;5.07;1.70;;;3.90;99.90;;;;;;4995464;28;20208;-75
2020/12/25 04:42:10;;;;;;;3.20;1.40;;;3.70;99.90;;;;;;4995254;28;20205;-73
2020/12/25 04:44:37;;;;;;;4.43;1.47;;;3.50;99.90;;;;;;4995436;28;20205;-75
2020/12/25 04:47:10;;;;;;;6.50;1.40;;;3.40;99.90;;;;;;4995415;28;20585;-75
2020/12/25 04:49:38;;;;;;;2.03;1.20;;;3.40;99.90;;;;;;4995148;28;20216;-74
2020/12/25 04:52:05;;;;;;;8.97;3.60;;;3.40;99.90;;;;;;4995194;28;20211;-73
2020/12/25 04:54:32;;;;;;;3.03;0.93;;;3.30;99.90;;;;;;4995120;28;20208;-73
2020/12/25 04:57:00;;;;;;;3.10;2.03;;;3.20;99.90;;;;;;4995011;28;20209;-74
2020/12/25 04:59:27;;;;;;;2.87;1.27;;;3.20;99.90;;;;;;4994985;28;20669;-73
2020/12/25 05:01:55;;;;;;;3.37;1.10;;;3.20;99.90;;;;;;4995450;28;20232;-72
2020/12/25 05:04:23;;;;;;;7.30;2.20;;;3.20;99.90;;;;;;4995348;28;20247;-74
2020/12/25 05:06:51;;;;;;;4.40;1.63;;;3.20;99.90;;;;;;4994776;28;20605;-73
2020/12/25 05:09:20;;;;;;;7.37;2.30;;;3.20;99.90;;;;;;4994828;28;20256;-74
2020/12/25 05:11:50;;;;;;;5.33;2.20;;;3.20;99.90;;;;;;4995025;28;20231;-72
2020/12/25 05:14:18;;;;;;;3.57;1.77;;;3.40;99.90;;;;;;4994864;28;20295;-73
2020/12/25 05:16:47;;;;;;;3.13;1.20;;;3.50;99.90;;;;;;4994652;28;20254;-74
2020/12/25 05:19:15;;;;;;;2.97;2.20;;;3.40;99.90;;;;;;4994714;28;20695;-75
2020/12/25 05:21:41;;;;;;;8.10;1.70;;;3.40;99.90;;;;;;4994589;28;20209;-73
2020/12/25 05:24:08;;;;;;;2.47;1.40;;;3.30;99.90;;;;;;4993095;28;20229;-73
2020/12/25 05:26:36;;;;;;;5.07;2.13;;;3.40;99.90;;;;;;4994632;28;20244;-73
2020/12/25 05:29:03;;;;;;;3.40;1.27;;;3.50;99.90;;;;;;4994646;28;20205;-74
2020/12/25 05:31:31;;;;;;;7.67;1.63;;;3.50;99.90;;;;;;4994579;28;20209;-73
2020/12/25 05:33:59;;;;;;;3.47;1.20;;;3.50;99.90;;;;;;4994729;28;20201;-75
2020/12/25 05:36:30;;;;;;;4.57;1.90;;;3.50;99.90;;;;;;4994532;28;20668;-75
2020/12/25 05:38:57;;;;;;;10.00;1.97;;;3.40;99.90;;;;;;4994712;28;20213;-75
2020/12/25 05:41:25;;;;;;;10.40;2.70;;;3.40;99.90;;;;;;4994640;28;20295;-73
2020/12/25 05:43:53;;;;;;;6.20;1.50;;;3.40;99.90;;;;;;4994411;28;20204;-74
2020/12/25 05:46:20;;;;;;;4.63;1.70;;;3.60;99.90;;;;;;4994183;28;20250;-75
2020/12/25 05:48:52;;;;;;;5.17;1.80;;;3.70;99.90;;;;;;4994107;28;20212;-74
2020/12/25 05:51:18;;;;;;;8.17;2.63;;;3.70;99.90;;;;;;4994133;28;20208;-73
2020/12/25 05:53:45;;;;;;;5.30;1.83;;;3.70;99.90;;;;;;4994019;28;20727;-74
2020/12/25 05:56:15;;;;;;;6.57;1.73;;;3.80;99.90;;;;;;4994182;28;20213;-73
2020/12/25 05:58:44;;;;;;;1.97;1.10;;;3.70;99.90;;;;;;4993934;28;20209;-74
2020/12/25 06:01:12;;;;;;;2.67;1.83;;;3.70;99.90;;;;;;4993829;28;20231;-74
2020/12/25 06:03:39;;;;;;;4.57;1.40;;;3.70;99.90;;;;;;4993757;28;20259;-74
2020/12/25 06:06:13;;;;;;;1.50;1.33;;;3.60;99.90;;;;;;4993917;28;20236;-74
2020/12/25 06:08:54;;;;;;;3.87;1.70;;;3.50;99.90;;;;;;4993609;28;20248;-73
2020/12/25 06:11:28;;;;;;;2.43;1.87;;;3.30;99.90;;;;;;4993575;28;20209;-73
2020/12/25 06:13:55;;;;;;;5.47;1.53;;;3.30;99.90;;;;;;4993834;28;20204;-74
2020/12/25 06:16:22;;;;;;;2.67;1.90;;;3.20;99.90;;;;;;4993805;28;20209;-73
2020/12/25 06:18:57;;;;;;;6.73;2.40;;;3.20;99.90;;;;;;4993647;28;20250;-74
2020/12/25 06:21:30;;;;;;;3.57;1.97;;;3.30;99.90;;;;;;4993534;28;20212;-74
2020/12/25 06:23:58;;;;;;;2.37;1.70;;;3.20;99.90;;;;;;4993775;28;20219;-74
2020/12/25 06:26:25;;;;;;;2.20;1.70;;;3.10;99.90;;;;;;4993316;28;20268;-74
2020/12/25 06:28:53;;;;;;;3.07;1.90;;;3.00;99.90;;;;;;4993326;28;20572;-74
2020/12/25 06:31:34;;;;;;;2.93;1.50;;;2.90;99.90;;;;;;4993557;28;20211;-73
2020/12/25 06:34:02;;;;;;;4.70;2.00;;;3.00;99.90;;;;;;4993457;28;20714;-74
2020/12/25 06:36:31;;;;;;;2.30;1.67;;;3.00;99.90;;;;;;4993105;28;20677;-73
2020/12/25 06:38:58;;;;;;;6.17;2.10;;;2.80;99.90;;;;;;4993410;28;20205;-73
2020/12/25 06:41:26;;;;;;;9.93;2.50;;;2.90;99.90;;;;;;4993387;28;20233;-73
2020/12/25 06:43:55;;;;;;;4.67;2.13;;;2.70;99.90;;;;;;4992993;28;20723;-74
2020/12/25 06:46:29;;;;;;;7.83;2.13;;;2.80;99.90;;;;;;4992909;28;20266;-74
2020/12/25 06:49:00;;;;;;;3.33;2.00;;;2.90;99.90;;;;;;4993118;28;20239;-74
2020/12/25 06:51:28;;;;;;;7.80;2.40;;;2.70;99.90;;;;;;4992990;28;20208;-75
2020/12/25 06:53:58;;;;;;;2.23;2.00;;;2.70;99.90;;;;;;4993075;28;20243;-74
2020/12/25 06:56:25;;;;;;;4.80;2.37;;;2.60;99.90;;;;;;4992822;28;20256;-73
2020/12/25 06:58:53;;;;;;;7.07;2.90;;;2.60;99.90;;;;;;4992973;28;20258;-74
2020/12/25 07:01:37;;;;;;;3.70;1.87;;;2.50;99.90;;;;;;4992713;28;20254;-73
2020/12/25 07:04:04;;;;;;;3.67;2.10;;;2.60;99.90;;;;;;4992756;28;20211;-73
2020/12/25 07:06:32;;;;;;;4.67;2.40;;;2.60;99.90;;;;;;4992866;28;20240;-74
2020/12/25 07:09:09;;;;;;;3.90;1.90;;;2.60;99.90;;;;;;4992985;28;20588;-74
2020/12/25 07:11:36;;;;;;;4.70;2.00;;;2.50;99.90;;;;;;4992684;28;20250;-74
2020/12/25 07:14:03;;;;;;;4.90;2.77;;;2.50;99.90;;;;;;4992948;28;20216;-73
2020/12/25 07:16:29;;;;;;;2.80;2.50;;;2.50;99.90;;;;;;4992745;28;20219;-73
2020/12/25 07:18:56;;;;;;;5.47;2.10;;;2.70;99.90;;;;;;4992746;28;20204;-73
2020/12/25 07:21:22;;;;;;;6.10;2.10;;;3.00;99.90;;;;;;4992434;28;20240;-76
2020/12/25 07:23:49;;;;;;;6.80;3.03;;;3.10;99.90;;;;;;4992291;28;20217;-73
2020/12/25 07:26:17;;;;;;;5.17;2.77;;;3.20;99.90;;;;;;4992399;28;20239;-73
2020/12/25 07:28:45;;;;;;;2.57;2.33;;;3.20;99.90;;;;;;4992342;28;20204;-74
2020/12/25 07:31:12;;;;;;;6.97;2.27;;;3.20;99.90;;;;;;4992572;28;20299;-73
2020/12/25 07:33:38;;;;;;;5.40;2.97;;;3.20;99.90;;;;;;4992531;28;20203;-75
2020/12/25 07:36:11;;;;;;;4.73;2.70;;;3.30;99.90;;;;;;4992249;28;20209;-76
2020/12/25 07:38:38;;;;;;;5.07;2.50;;;3.20;99.90;;;;;;4992326;28;20216;-73
2020/12/25 07:41:05;;;;;;;4.23;2.17;;;3.20;99.90;;;;;;4992230;28;20215;-73
2020/12/25 07:43:32;;;;;;;3.03;2.67;;;3.30;99.90;;;;;;4992422;28;20665;-73
2020/12/25 07:45:59;;;;;;;5.07;2.43;;;3.20;99.90;;;;;;4992854;28;20244;-74
2020/12/25 07:48:25;;;;;;;3.00;2.30;;;3.20;99.90;;;;;;4998254;28;20701;-73
2020/12/25 07:50:52;;;;;;;2.77;2.10;;;3.30;99.90;;;;;;4998823;28;20231;-74
2020/12/25 07:53:18;;;;;;;9.47;2.57;;;3.30;99.90;;;;;;4998788;28;20204;-74
2020/12/25 07:55:47;;;;;;;6.47;2.57;;;3.40;99.90;;;;;;4998611;28;20216;-74
2020/12/25 07:58:15;;;;;;;3.10;2.03;;;3.40;99.90;;;;;;4998587;28;20205;-73
2020/12/25 08:00:42;;;;;;;5.47;2.90;;;3.40;99.90;;;;;;4998530;28;20750;-74
2020/12/25 08:03:10;;;;;;;6.93;2.70;;;3.30;99.90;;;;;;4998702;28;20205;-74
2020/12/25 08:05:37;;;;;;;8.47;2.77;;;3.30;99.90;;;;;;4998583;28;20228;-74
2020/12/25 08:08:05;;;;;;;6.13;2.53;;;3.40;99.90;;;;;;4998793;28;20275;-73
2020/12/25 08:10:34;;;;;;;3.37;1.70;;;3.20;99.90;;;;;;4998758;28;20208;-74
2020/12/25 08:13:00;;;;;;;4.93;1.90;;;3.30;99.90;;;;;;4998737;28;20649;-74
2020/12/25 08:15:28;;;;;;;2.83;2.07;;;3.30;99.90;;;;;;4998660;28;20205;-74
2020/12/25 08:17:58;;;;;;;3.40;1.80;;;3.30;99.90;;;;;;4998541;28;20204;-77
2020/12/25 08:20:25;;;;;;;3.90;2.37;;;3.40;99.90;;;;;;4998237;28;20594;-74
2020/12/25 08:22:58;;;;;;;5.37;2.70;;;3.30;99.90;;;;;;4998257;28;20271;-75
2020/12/25 08:25:26;;;;;;;3.03;2.03;;;3.50;99.90;;;;;;4998059;28;20236;-74
2020/12/25 08:27:53;;;;;;;5.23;2.30;;;3.50;99.90;;;;;;4998491;28;20216;-74
2020/12/25 08:30:20;;;;;;;3.90;2.60;;;3.40;99.90;;;;;;4998242;28;20700;-75
2020/12/25 08:32:49;;;;;;;3.67;1.70;;;3.40;99.90;;;;;;4998433;28;20684;-74
2020/12/25 08:35:17;;;;;;;4.13;2.67;;;3.50;99.90;;;;;;4998388;28;20205;-74
2020/12/25 08:37:58;;;;;;;4.47;2.60;;;3.50;99.90;;;;;;4998214;28;20220;-74
2020/12/25 08:40:25;;;;;;;5.83;2.50;;;3.50;99.90;;;;;;4998384;28;20204;-74
2020/12/25 08:42:51;;;;;;;5.63;2.27;;;3.60;99.90;;;;;;4998213;28;20215;-74
2020/12/25 08:45:22;;;;;;;4.90;3.50;;;3.60;99.90;;;;;;4998082;28;20278;-73
2020/12/25 08:48:09;;;;;;;7.57;2.20;;;3.50;99.90;;;;;;4998166;28;20676;-73
2020/12/25 08:50:35;;;;;;;5.10;2.33;;;3.50;99.90;;;;;;4998489;28;20209;-74
2020/12/25 08:53:19;;;;;;;5.43;2.47;;;3.50;99.90;;;;;;4998531;28;20256;-74
2020/12/25 08:55:50;;;;;;;6.30;2.47;;;3.50;99.90;;;;;;4998103;28;20218;-74
2020/12/25 08:58:18;;;;;;;6.80;2.77;;;3.70;99.90;;;;;;4996692;28;20208;-74
2020/12/25 09:00:58;;;;;;;8.53;2.93;;;3.80;99.90;;;;;;4995252;28;20212;-74
2020/12/25 09:03:36;;;;;;;2.50;2.30;;;3.70;99.90;;;;;;4995048;28;20261;-75
2020/12/25 09:06:03;;;;;;;4.07;2.63;;;3.80;99.90;;;;;;4994759;28;20802;-74
2020/12/25 09:08:29;;;;;;;4.20;2.37;;;3.70;99.90;;;;;;4994798;28;20271;-74
2020/12/25 09:10:56;;;;;;;5.20;2.73;;;3.70;99.90;;;;;;4994768;28;20205;-74
2020/12/25 09:13:22;;;;;;;2.70;2.10;;;3.70;99.90;;;;;;4994859;28;20209;-74
2020/12/25 09:15:49;;;;;;;4.30;2.30;;;3.70;99.90;;;;;;4994871;28;20217;-74
2020/12/25 09:18:15;;;;;;;4.07;2.37;;;3.80;99.90;;;;;;4994621;28;20213;-74
2020/12/25 09:20:42;;;;;;;5.33;2.40;;;3.80;99.90;;;;;;4994713;28;20236;-74
2020/12/25 09:23:09;;;;;;;2.50;2.27;;;3.90;99.90;;;;;;4994758;28;20638;-74
2020/12/25 09:25:35;;;;;;;3.97;2.27;;;4.10;99.90;;;;;;4994635;28;20233;-74
2020/12/25 09:28:02;;;;;;;6.53;2.20;;;4.10;99.90;;;;;;4994512;28;20669;-75
2020/12/25 09:30:28;;;;;;;4.23;2.73;;;4.20;99.90;;;;;;4994490;28;20205;-75
2020/12/25 09:32:54;;;;;;;5.70;2.97;;;4.10;99.90;;;;;;4994546;28;20204;-75
2020/12/25 09:35:21;;;;;;;2.47;1.77;;;4.10;99.90;;;;;;4994488;28;20243;-75
2020/12/25 09:37:48;;;;;;;6.00;2.60;;;4.90;99.90;;;;;;4994373;28;20549;-74
2020/12/25 09:40:15;;;;;;;3.33;2.33;;;4.50;99.90;;;;;;4994369;28;20201;-74
2020/12/25 09:42:41;;;;;;;4.93;2.10;;;4.20;99.90;;;;;;4994786;28;20201;-75
2020/12/25 09:45:07;;;;;;;4.83;2.60;;;5.10;99.90;;;;;;4994623;28;20205;-74
2020/12/25 09:47:34;;;;;;;5.57;2.00;;;7.10;99.90;;;;;;4994157;28;20664;-75
2020/12/25 09:50:00;;;;;;;4.63;2.47;;;7.90;99.90;;;;;;4994194;28;20201;-74
2020/12/25 09:52:27;;;;;;;4.27;2.60;;;8.90;99.90;;;;;;4994110;28;20252;-75
2020/12/25 09:54:54;;;;;;;2.63;2.13;;;8.50;99.90;;;;;;4994010;28;20204;-75
2020/12/25 09:57:20;;;;;;;3.40;2.23;;;6.60;99.90;;;;;;4994092;28;20224;-75
2020/12/25 09:59:47;;;;;;;3.20;1.80;;;5.50;99.90;;;;;;4993982;28;20212;-75
2020/12/25 10:02:13;;;;;;;3.27;2.40;;;4.90;99.90;;;;;;4993900;28;20211;-75
2020/12/25 10:04:40;;;;;;;5.13;1.57;;;4.90;99.90;;;;;;4994252;28;20208;-75
2020/12/25 10:07:06;;;;;;;6.70;2.03;;;4.60;99.90;;;;;;4993700;28;20244;-75
2020/12/25 10:09:32;;;;;;;3.20;1.90;;;4.50;99.90;;;;;;4992992;28;20209;-74
2020/12/25 10:12:00;;;;;;;2.60;1.77;;;4.50;99.90;;;;;;4993897;28;20208;-75
2020/12/25 10:14:28;;;;;;;1.80;1.67;;;4.50;99.90;;;;;;4993777;28;20217;-74
2020/12/25 10:16:54;;;;;;;2.90;1.90;;;4.40;99.90;;;;;;4993789;28;20241;-73
2020/12/25 10:19:20;;;;;;;1.97;1.50;;;4.20;99.90;;;;;;4993572;28;20743;-74
2020/12/25 10:21:49;;;;;;;4.27;1.63;;;4.20;99.90;;;;;;4993453;28;20205;-75
2020/12/25 10:24:15;;;;;;;4.70;2.07;;;4.30;99.90;;;;;;4993228;28;20213;-74
2020/12/25 10:26:42;;;;;;;4.43;1.60;;;4.30;99.90;;;;;;4993569;28;20736;-74
2020/12/25 10:29:09;;;;;;;4.33;1.90;;;4.40;99.90;;;;;;4993647;28;20207;-74
2020/12/25 10:31:36;;;;;;;2.83;1.97;;;4.40;99.90;;;;;;4993345;28;20217;-75
2020/12/25 10:34:02;;;;;;;2.13;1.90;;;4.50;99.90;;;;;;4993312;28;20211;-74
2020/12/25 10:36:28;;;;;;;6.10;1.43;;;4.50;99.90;;;;;;4993175;28;20201;-74
2020/12/25 10:38:55;;;;;;;2.73;1.27;;;4.40;99.90;;;;;;4993106;28;20543;-74
2020/12/25 10:41:28;;;;;;;5.07;1.60;;;4.50;99.90;;;;;;4993305;28;20205;-74
2020/12/25 10:43:55;;;;;;;3.03;1.43;;;4.60;99.90;;;;;;4993244;28;20205;-74
2020/12/25 10:46:22;;;;;;;4.23;1.83;;;4.90;99.90;;;;;;4993006;28;20233;-74
2020/12/25 10:48:49;;;;;;;5.83;2.30;;;4.70;99.90;;;;;;4992891;28;20213;-75
2020/12/25 10:51:15;;;;;;;4.60;2.67;;;4.90;99.90;;;;;;4992866;28;20205;-75
2020/12/25 10:53:42;;;;;;;2.50;1.93;;;5.00;99.90;;;;;;4993326;28;20248;-75
2020/12/25 10:56:08;;;;;;;3.83;1.87;;;4.90;99.90;;;;;;4993021;28;20213;-74
2020/12/25 10:58:35;;;;;;;3.53;2.07;;;4.90;99.90;;;;;;4992941;28;20236;-74
2020/12/25 11:01:01;;;;;;;3.30;1.80;;;5.00;99.90;;;;;;4992851;28;20204;-74
2020/12/25 11:03:29;;;;;;;3.87;1.80;;;5.00;99.90;;;;;;4992668;28;20209;-75
2020/12/25 11:05:55;;;;;;;4.50;1.90;;;5.50;99.90;;;;;;4992942;28;20272;-74
2020/12/25 11:08:21;;;;;;;4.10;1.80;;;5.60;99.90;;;;;;4992657;28;20692;-75
2020/12/25 11:10:48;;;;;;;7.30;2.10;;;5.50;99.90;;;;;;4992915;28;20201;-75
2020/12/25 11:13:14;;;;;;;3.27;1.87;;;5.30;99.90;;;;;;4993081;28;20201;-75
2020/12/25 11:15:41;;;;;;;4.43;2.27;;;5.20;99.90;;;;;;4992646;28;20256;-75
2020/12/25 11:18:07;;;;;;;3.17;2.23;;;4.90;99.90;;;;;;4992620;28;20633;-75
2020/12/25 11:20:35;;;;;;;4.00;1.33;;;4.90;99.90;;;;;;4992559;28;20209;-74
2020/12/25 11:23:01;;;;;;;2.60;1.40;;;4.80;99.90;;;;;;4991765;28;20216;-75
2020/12/25 11:25:27;;;;;;;4.67;1.80;;;4.60;99.90;;;;;;4992646;28;20228;-75
2020/12/25 11:27:54;;;;;;;3.70;1.50;;;4.70;99.90;;;;;;4992375;28;20248;-75
2020/12/25 11:30:21;;;;;;;3.90;1.93;;;4.50;99.90;;;;;;4992396;28;20673;-75
2020/12/25 11:32:47;;;;;;;6.87;1.97;;;4.50;99.90;;;;;;4992767;28;20205;-75
2020/12/25 11:35:13;;;;;;;2.30;1.73;;;4.50;99.90;;;;;;4992866;28;20213;-75
2020/12/25 11:37:41;;;;;;;4.17;1.53;;;4.50;99.90;;;;;;4992487;28;20208;-74
2020/12/25 11:40:07;;;;;;;3.50;1.57;;;4.50;99.90;;;;;;4992420;28;20263;-75
2020/12/25 11:42:33;;;;;;;3.43;1.60;;;4.50;99.90;;;;;;4992417;28;20209;-75
2020/12/25 11:45:00;;;;;;;2.67;1.60;;;4.60;99.90;;;;;;4992332;28;20212;-75
2020/12/25 11:47:26;;;;;;;4.57;2.20;;;4.60;99.90;;;;;;4992075;28;20237;-75
2020/12/25 11:49:54;;;;;;;3.10;1.70;;;4.70;99.90;;;;;;4992542;28;20204;-75
2020/12/25 11:52:20;;;;;;;4.33;2.27;;;4.70;99.90;;;;;;4992343;28;20201;-74
2020/12/25 11:54:47;;;;;;;4.73;2.37;;;4.90;99.90;;;;;;4992525;28;20223;-75
2020/12/25 11:57:14;;;;;;;4.60;1.80;;;5.30;99.90;;;;;;4992474;28;20212;-75
2020/12/25 11:59:40;;;;;;;3.53;2.23;;;5.60;99.90;;;;;;4992129;28;20207;-75
2020/12/25 12:02:07;;;;;;;3.20;2.17;;;5.50;99.90;;;;;;4992119;28;20216;-75
2020/12/25 12:04:33;;;;;;;8.00;3.20;;;5.60;99.90;;;;;;4992242;28;20232;-75
2020/12/25 12:07:00;;;;;;;3.60;1.67;;;5.50;99.90;;;;;;4992040;28;20240;-75
2020/12/25 12:09:26;;;;;;;4.03;1.50;;;5.40;99.90;;;;;;4992153;28;20633;-75
2020/12/25 12:11:53;;;;;;;3.57;1.87;;;5.40;99.90;;;;;;4991941;28;20208;-74
2020/12/25 12:14:21;;;;;;;4.27;2.37;;;5.30;99.90;;;;;;4991961;28;20201;-73
2020/12/25 12:16:47;;;;;;;3.67;1.53;;;5.20;99.90;;;;;;4992695;28;20208;-75
2020/12/25 12:19:14;;;;;;;5.97;2.03;;;5.00;99.90;;;;;;4992046;28;20681;-75
2020/12/25 12:21:40;;;;;;;4.10;1.80;;;5.00;99.90;;;;;;4992129;28;20204;-74
2020/12/25 12:24:07;;;;;;;5.63;2.40;;;4.90;99.90;;;;;;4991773;28;20666;-75
2020/12/25 12:26:33;;;;;;;6.73;2.30;;;4.90;99.90;;;;;;4991791;28;20236;-74
2020/12/25 12:29:00;;;;;;;5.53;2.10;;;4.90;99.90;;;;;;4991755;28;20709;-75
2020/12/25 12:31:27;;;;;;;3.10;1.63;;;4.90;99.90;;;;;;4991756;28;20236;-75
2020/12/25 12:33:53;;;;;;;6.47;2.33;;;4.80;99.90;;;;;;4994228;28;20260;-75
2020/12/25 12:36:20;;;;;;;4.37;2.53;;;4.80;99.90;;;;;;4995923;28;20205;-74
2020/12/25 12:38:46;;;;;;;7.10;2.83;;;4.80;99.90;;;;;;4995852;28;20271;-75
2020/12/25 12:41:13;;;;;;;6.03;3.00;;;4.80;99.90;;;;;;4995300;28;20205;-74
2020/12/25 12:43:39;;;;;;;8.37;2.27;;;4.60;99.90;;;;;;4995373;28;20216;-75
2020/12/25 12:46:06;;;;;;;4.17;2.60;;;4.70;99.90;;;;;;4995492;28;20233;-75
2020/12/25 12:48:33;;;;;;;5.53;1.77;;;4.90;99.90;;;;;;4995221;28;20800;-75
2020/12/25 12:50:59;;;;;;;7.23;3.50;;;4.90;99.90;;;;;;4995291;28;20209;-74
2020/12/25 12:53:26;;;;;;;2.87;2.10;;;5.00;99.90;;;;;;4995246;28;20201;-75
2020/12/25 12:55:52;;;;;;;7.57;2.80;;;4.90;99.90;;;;;;4994952;28;20580;-75
2020/12/25 12:58:18;;;;;;;11.63;3.43;;;5.00;99.90;;;;;;4995656;28;20216;-75